createdAt,value
2024-01-05T00:01:02.138Z,53.02
2024-01-05T00:03:29.075Z,53.33
2024-01-05T00:05:56.292Z,52.94
2024-01-05T00:08:23.417Z,53.33
2024-01-05T00:10:50.598Z,53.43
2024-01-05T00:13:17.757Z,53.63
2024-01-05T00:15:44.672Z,53.74
2024-01-05T00:18:11.897Z,53.45
2024-01-05T00:20:38.936Z,53.64
2024-01-05T00:23:05.935Z,53.54
2024-01-05T00:25:32.964Z,53.56
2024-01-05T00:27:59.972Z,53.45
2024-01-05T00:30:26.802Z,53.83
2024-01-05T00:32:53.976Z,53.48
2024-01-05T00:35:21.700Z,53.54
2024-01-05T00:37:48.520Z,53.50
2024-01-05T00:40:15.531Z,53.48
2024-01-05T00:42:42.570Z,53.81
2024-01-05T00:45:09.848Z,53.57
2024-01-05T00:47:36.960Z,53.74
2024-01-05T00:50:04.519Z,54.21
2024-01-05T00:52:31.537Z,53.98
2024-01-05T00:54:58.558Z,54.18
2024-01-05T00:57:26.796Z,54.88
2024-01-05T00:59:53.983Z,54.40
2024-01-05T01:02:20.782Z,54.79
2024-01-05T01:04:47.876Z,54.77
2024-01-05T01:07:14.866Z,54.63
2024-01-05T01:09:41.933Z,54.99
2024-01-05T01:12:08.756Z,55.08
2024-01-05T01:14:35.924Z,55.36
2024-01-05T01:17:02.851Z,55.48
2024-01-05T01:19:29.971Z,55.65
2024-01-05T01:21:57.065Z,55.77
2024-01-05T01:24:24.237Z,56.08
2024-01-05T01:26:51.316Z,55.97
2024-01-05T01:29:18.332Z,56.27
2024-01-05T01:31:45.349Z,56.57
2024-01-05T01:34:12.543Z,56.84
2024-01-05T01:36:39.511Z,57.10
2024-01-05T01:39:06.649Z,57.31
2024-01-05T01:41:33.703Z,57.16
2024-01-05T01:44:00.718Z,57.09
2024-01-05T01:46:27.888Z,56.62
2024-01-05T01:48:55.125Z,57.43
2024-01-05T01:51:22.697Z,55.96
2024-01-05T01:53:49.829Z,56.06
2024-01-05T01:56:16.716Z,55.33
2024-01-05T01:58:44.263Z,55.18
2024-01-05T02:01:11.892Z,54.52
2024-01-05T02:03:38.862Z,54.45
2024-01-05T02:06:06.139Z,54.03
2024-01-05T02:08:33.755Z,53.81
2024-01-05T02:11:00.737Z,53.83
2024-01-05T02:13:27.684Z,53.85
2024-01-05T02:15:54.444Z,53.56
2024-01-05T02:18:21.369Z,53.47
2024-01-05T02:20:48.991Z,53.86
2024-01-05T02:23:25.456Z,54.31
2024-01-05T02:25:52.683Z,54.03
2024-01-05T02:28:20.814Z,54.16
2024-01-05T02:30:48.281Z,54.16
2024-01-05T02:33:15.716Z,54.67
2024-01-05T02:35:42.769Z,54.55
2024-01-05T02:38:09.741Z,54.49
2024-01-05T02:40:36.815Z,54.76
2024-01-05T02:43:03.842Z,55.44
2024-01-05T02:45:31.220Z,55.25
2024-01-05T02:47:58.429Z,55.20
2024-01-05T02:50:25.723Z,55.52
2024-01-05T02:52:52.397Z,55.63
2024-01-05T02:55:19.476Z,55.92
2024-01-05T02:57:46.413Z,55.85
2024-01-05T03:00:13.512Z,56.57
2024-01-05T03:02:40.356Z,56.93
2024-01-05T03:05:07.791Z,57.58
2024-01-05T03:07:34.892Z,57.56
2024-01-05T03:10:01.785Z,57.67
2024-01-05T03:12:29.157Z,57.74
2024-01-05T03:14:56.334Z,58.20
2024-01-05T03:17:23.428Z,58.83
2024-01-05T03:19:50.483Z,59.09
2024-01-05T03:22:17.850Z,59.52
2024-01-05T03:24:45.138Z,59.92
2024-01-05T03:27:14.476Z,60.35
2024-01-05T03:29:42.255Z,60.58
2024-01-05T03:32:09.786Z,61.50
2024-01-05T03:34:36.868Z,62.13
2024-01-05T03:37:03.958Z,62.90
2024-01-05T03:39:30.939Z,63.30
2024-01-05T03:41:58.086Z,63.02
2024-01-05T03:44:25.134Z,63.16
2024-01-05T03:46:52.148Z,63.46
2024-01-05T03:49:19.588Z,63.79
2024-01-05T03:51:46.681Z,64.12
2024-01-05T03:54:13.869Z,64.34
2024-01-05T03:56:44.365Z,64.79
2024-01-05T03:59:11.336Z,65.04
2024-01-05T04:01:45.130Z,64.88
2024-01-05T04:04:12.487Z,64.75
2024-01-05T04:06:39.717Z,64.96
2024-01-05T04:09:10.947Z,65.04
2024-01-05T04:11:38.531Z,65.02
2024-01-05T04:14:06.610Z,65.14
2024-01-05T04:16:33.682Z,64.96
2024-01-05T04:19:00.969Z,65.19
2024-01-05T04:21:28.247Z,65.17
2024-01-05T04:23:56.737Z,64.77
2024-01-05T04:26:23.851Z,64.83
2024-01-05T04:28:50.975Z,64.51
2024-01-05T04:31:18.169Z,64.51
2024-01-05T04:33:45.312Z,64.44
2024-01-05T04:36:16.728Z,64.37
2024-01-05T04:38:44.359Z,65.21
2024-01-05T04:41:13.320Z,65.45
2024-01-05T04:43:40.605Z,65.87
2024-01-05T04:46:08.374Z,65.87
2024-01-05T04:48:35.674Z,65.89
2024-01-05T04:51:03.064Z,65.93
2024-01-05T04:53:30.205Z,67.04
2024-01-05T04:55:57.268Z,67.26
2024-01-05T04:58:25.330Z,67.59
2024-01-05T05:00:52.795Z,67.45
2024-01-05T05:03:19.840Z,67.72
2024-01-05T05:05:47.373Z,67.21
2024-01-05T05:08:16.066Z,67.69
2024-01-05T05:10:43.041Z,67.90
2024-01-05T05:13:10.660Z,67.62
2024-01-05T05:15:39.069Z,68.22
2024-01-05T05:18:06.689Z,68.40
2024-01-05T05:20:34.477Z,68.46
2024-01-05T05:23:01.535Z,68.30
2024-01-05T05:25:28.403Z,68.26
2024-01-05T05:27:55.408Z,68.16
2024-01-05T05:30:22.519Z,68.34
2024-01-05T05:32:49.703Z,67.85
2024-01-05T05:35:16.690Z,68.07
2024-01-05T05:37:43.448Z,68.29
2024-01-05T05:40:10.657Z,68.67
2024-01-05T05:42:37.768Z,68.76
2024-01-05T05:45:05.641Z,68.76
2024-01-05T05:47:32.890Z,69.09
2024-01-05T05:49:59.806Z,68.90
2024-01-05T05:52:29.857Z,69.12
2024-01-05T05:54:57.904Z,69.72
2024-01-05T05:57:25.072Z,69.61
2024-01-05T05:59:53.001Z,70.39
2024-01-05T06:02:20.367Z,70.18
2024-01-05T06:04:47.331Z,69.90
2024-01-05T06:07:14.887Z,70.14
2024-01-05T06:09:41.921Z,70.00
2024-01-05T06:12:11.256Z,69.62
2024-01-05T06:14:39.449Z,69.23
2024-01-05T06:17:06.307Z,69.60
2024-01-05T06:19:33.506Z,69.70
2024-01-05T06:22:01.234Z,70.14
2024-01-05T06:24:30.274Z,70.30
2024-01-05T06:26:57.516Z,70.15
2024-01-05T06:29:24.295Z,69.98
2024-01-05T06:31:51.326Z,70.19
2024-01-05T06:34:18.257Z,70.15
2024-01-05T06:36:45.132Z,70.20
2024-01-05T06:39:12.397Z,70.43
2024-01-05T06:41:39.220Z,69.91
2024-01-05T06:44:06.396Z,69.96
2024-01-05T06:46:33.466Z,69.35
2024-01-05T06:49:02.131Z,69.19
2024-01-05T06:51:32.391Z,69.38
2024-01-05T06:54:00.212Z,69.48
2024-01-05T06:56:29.351Z,69.10
2024-01-05T06:58:56.880Z,69.29
2024-01-05T07:01:24.232Z,69.21
2024-01-05T07:03:51.574Z,69.01
2024-01-05T07:06:18.831Z,69.05
2024-01-05T07:08:45.790Z,68.97
2024-01-05T07:11:24.923Z,68.90
2024-01-05T07:13:52.068Z,68.97
2024-01-05T07:16:22.552Z,68.81
2024-01-05T07:18:49.968Z,68.51
2024-01-05T07:21:17.801Z,68.08
2024-01-05T07:23:45.034Z,67.70
2024-01-05T07:26:12.151Z,67.25
2024-01-05T07:28:39.271Z,66.64
2024-01-05T07:31:06.920Z,66.53
2024-01-05T07:33:34.418Z,66.58
2024-01-05T07:36:07.975Z,65.54
2024-01-05T07:38:36.162Z,64.24
2024-01-05T07:41:03.601Z,63.31
2024-01-05T07:43:33.976Z,61.98
2024-01-05T07:46:04.258Z,60.76
2024-01-05T07:48:31.424Z,59.42
2024-01-05T07:50:58.694Z,58.66
2024-01-05T07:53:25.787Z,57.60
2024-01-05T07:55:52.601Z,56.31
2024-01-05T07:58:19.783Z,54.52
2024-01-05T08:00:47.480Z,52.66
2024-01-05T08:03:14.600Z,52.36
2024-01-05T08:05:45.004Z,51.65
2024-01-05T08:08:14.133Z,50.58
2024-01-05T08:10:41.214Z,49.93
2024-01-05T08:13:08.145Z,47.31
2024-01-05T08:15:35.240Z,48.44
2024-01-05T08:18:04.212Z,47.69
2024-01-05T08:20:34.538Z,47.90
2024-01-05T08:23:01.799Z,47.83
2024-01-05T08:25:28.812Z,47.60
2024-01-05T08:27:55.814Z,48.10
2024-01-05T08:30:23.246Z,48.03
2024-01-05T08:32:56.031Z,47.85
2024-01-05T08:35:23.172Z,47.46
2024-01-05T08:37:50.225Z,47.47
2024-01-05T08:40:18.421Z,46.79
2024-01-05T08:42:47.098Z,46.68
2024-01-05T08:45:18.099Z,45.82
2024-01-05T08:47:45.328Z,44.67
2024-01-05T08:50:13.311Z,44.39
2024-01-05T08:52:40.818Z,42.43
2024-01-05T08:55:08.985Z,42.37
2024-01-05T08:57:36.119Z,41.72
2024-01-05T09:00:04.205Z,41.72
2024-01-05T09:02:31.366Z,41.14
2024-01-05T09:04:59.110Z,40.73
2024-01-05T09:07:26.023Z,39.76
2024-01-05T09:09:52.832Z,39.54
2024-01-05T09:12:19.974Z,40.54
2024-01-05T09:14:46.886Z,41.44
2024-01-05T09:17:13.999Z,40.36
2024-01-05T09:19:41.040Z,39.51
2024-01-05T09:22:08.760Z,38.84
2024-01-05T09:24:36.996Z,39.46
2024-01-05T09:27:05.035Z,38.09
2024-01-05T09:29:32.932Z,38.58
2024-01-05T09:31:59.793Z,38.33
2024-01-05T09:34:26.620Z,38.47
2024-01-05T09:36:55.006Z,37.84
2024-01-05T09:39:21.841Z,37.63
2024-01-05T09:41:49.549Z,38.26
2024-01-05T09:44:17.356Z,37.67
2024-01-05T09:46:45.238Z,36.54
2024-01-05T09:49:15.371Z,36.07
2024-01-05T09:51:42.562Z,35.54
2024-01-05T09:54:09.710Z,34.36
2024-01-05T09:56:37.126Z,34.02
2024-01-05T09:59:04.661Z,32.74
2024-01-05T10:01:32.396Z,32.84
2024-01-05T10:04:01.074Z,32.38
2024-01-05T10:06:28.070Z,32.33
2024-01-05T10:08:57.060Z,32.01
2024-01-05T10:11:36.613Z,31.33
2024-01-05T10:14:06.763Z,32.00
2024-01-05T10:16:40.570Z,32.25
2024-01-05T10:19:15.843Z,31.68
2024-01-05T10:21:48.440Z,31.82
2024-01-05T10:24:24.204Z,31.47
2024-01-05T10:27:14.344Z,31.46
2024-01-05T10:29:46.448Z,31.31
2024-01-05T10:32:15.999Z,32.21
2024-01-05T10:34:44.963Z,31.36
2024-01-05T10:37:12.763Z,31.52
2024-01-05T10:39:40.415Z,31.79
2024-01-05T10:42:27.993Z,32.10
2024-01-05T10:44:57.332Z,32.04
2024-01-05T10:47:27.084Z,31.93
2024-01-05T10:49:57.533Z,32.65
2024-01-05T10:52:28.468Z,32.55
2024-01-05T10:54:55.657Z,32.38
2024-01-05T10:57:25.128Z,32.51
2024-01-05T10:59:55.655Z,32.64
2024-01-05T11:02:26.102Z,32.25
2024-01-05T11:05:08.334Z,31.53
2024-01-05T11:07:35.897Z,31.09
2024-01-05T11:10:33.667Z,30.75
2024-01-05T11:13:09.372Z,30.70
2024-01-05T11:15:49.151Z,31.78
2024-01-05T11:18:16.276Z,31.62
2024-01-05T11:21:10.098Z,31.84
2024-01-05T11:23:37.456Z,30.92
2024-01-05T11:26:05.062Z,30.27
2024-01-05T11:28:41.926Z,30.88
2024-01-05T11:31:09.091Z,31.27
2024-01-05T11:33:48.443Z,30.82
2024-01-05T11:36:49.842Z,32.10
2024-01-05T11:39:38.869Z,33.08
2024-01-05T11:42:06.433Z,34.15
2024-01-05T11:44:34.754Z,35.12
2024-01-05T11:47:02.697Z,35.84
2024-01-05T11:49:40.545Z,37.37
2024-01-05T11:52:08.935Z,38.36
2024-01-05T11:54:36.382Z,38.55
2024-01-05T11:57:05.280Z,38.18
2024-01-05T11:59:32.073Z,38.53
2024-01-05T12:01:58.886Z,39.24
2024-01-05T12:04:25.769Z,39.49
2024-01-05T12:06:55.768Z,39.54
2024-01-05T12:09:23.156Z,40.02
2024-01-05T12:11:50.294Z,40.08
2024-01-05T12:14:27.567Z,39.88
2024-01-05T12:16:54.368Z,40.30
2024-01-05T12:19:22.540Z,40.13
2024-01-05T12:21:53.871Z,40.54
2024-01-05T12:24:20.777Z,41.27
2024-01-05T12:26:53.738Z,41.95
2024-01-05T12:29:20.806Z,41.90
2024-01-05T12:31:48.675Z,41.91
2024-01-05T12:34:18.796Z,41.79
2024-01-05T12:36:45.782Z,42.64
2024-01-05T12:39:14.551Z,43.32
2024-01-05T12:41:44.146Z,43.27
2024-01-05T12:44:12.445Z,43.24
2024-01-05T12:46:44.218Z,43.61
2024-01-05T12:49:26.188Z,43.89
2024-01-05T12:51:54.580Z,44.86
2024-01-05T12:54:22.960Z,44.38
2024-01-05T12:56:52.204Z,44.27
2024-01-05T12:59:21.630Z,45.13
2024-01-05T13:01:49.386Z,44.95
2024-01-05T13:04:30.956Z,45.78
2024-01-05T13:06:58.966Z,45.21
2024-01-05T13:09:25.855Z,45.56
2024-01-05T13:11:55.894Z,45.88
2024-01-05T13:14:22.723Z,45.99
2024-01-05T13:16:49.758Z,45.27
2024-01-05T13:19:17.349Z,45.49
2024-01-05T13:21:44.388Z,45.74
2024-01-05T13:24:11.649Z,45.88
2024-01-05T13:26:38.754Z,45.63
2024-01-05T13:29:05.764Z,46.16
2024-01-05T13:31:32.788Z,46.28
2024-01-05T13:33:59.854Z,46.68
2024-01-05T13:36:26.869Z,46.75
2024-01-05T13:38:53.866Z,47.13
2024-01-05T13:41:20.876Z,46.90
2024-01-05T13:43:47.947Z,46.97
2024-01-05T13:46:15.070Z,47.12
2024-01-05T13:48:42.204Z,47.51
2024-01-05T13:51:09.473Z,47.79
2024-01-05T13:53:37.334Z,48.03
2024-01-05T13:56:04.565Z,47.88
2024-01-05T13:58:32.435Z,48.79
2024-01-05T14:01:05.198Z,49.29
2024-01-05T14:03:32.861Z,49.35
2024-01-05T14:06:05.375Z,49.50
2024-01-05T14:08:33.073Z,49.91
2024-01-05T14:11:00.293Z,50.42
2024-01-05T14:13:27.362Z,50.50
2024-01-05T14:15:54.312Z,51.28
2024-01-05T14:18:21.530Z,51.18
2024-01-05T14:20:48.548Z,51.70
2024-01-05T14:23:15.342Z,51.77
2024-01-05T14:25:42.172Z,52.26
2024-01-05T14:28:09.214Z,52.88
2024-01-05T14:30:36.075Z,52.82
2024-01-05T14:33:03.483Z,53.33
2024-01-05T14:35:30.568Z,54.08
2024-01-05T14:37:57.498Z,54.53
2024-01-05T14:40:24.574Z,54.70
2024-01-05T14:42:51.547Z,55.15
2024-01-05T14:45:18.384Z,55.23
2024-01-05T14:47:45.740Z,54.90
2024-01-05T14:50:12.614Z,55.16
2024-01-05T14:52:39.643Z,55.64
2024-01-05T14:55:07.189Z,56.39
2024-01-05T14:57:34.602Z,56.25
2024-01-05T15:00:01.842Z,56.91
2024-01-05T15:02:28.899Z,57.26
2024-01-05T15:04:55.981Z,57.09
2024-01-05T15:07:23.511Z,56.99
2024-01-05T15:09:50.919Z,56.97
2024-01-05T15:12:17.943Z,57.76
2024-01-05T15:14:45.111Z,57.89
2024-01-05T15:17:12.067Z,57.92
2024-01-05T15:19:39.125Z,58.33
2024-01-05T15:22:06.220Z,58.51
2024-01-05T15:24:33.320Z,59.10
2024-01-05T15:27:00.605Z,58.80
2024-01-05T15:29:27.565Z,59.13
2024-01-05T15:31:54.444Z,59.06
2024-01-05T15:34:21.702Z,58.91
2024-01-05T15:36:52.550Z,59.13
2024-01-05T15:39:19.961Z,59.51
2024-01-05T15:41:46.819Z,59.78
2024-01-05T15:44:13.750Z,59.89
2024-01-05T15:46:41.216Z,60.29
2024-01-05T15:49:08.508Z,60.19
2024-01-05T15:51:37.576Z,60.47
2024-01-05T15:54:05.972Z,60.63
2024-01-05T15:56:36.896Z,60.65
2024-01-05T15:59:03.971Z,61.17
2024-01-05T16:01:30.853Z,61.38
2024-01-05T16:03:58.204Z,61.66
2024-01-05T16:06:25.068Z,62.14
2024-01-05T16:08:51.942Z,62.13
2024-01-05T16:11:18.814Z,62.69
2024-01-05T16:13:48.163Z,62.60
2024-01-05T16:16:20.383Z,63.00
2024-01-05T16:18:50.542Z,62.87
2024-01-05T16:21:27.188Z,62.95
2024-01-05T16:23:55.669Z,63.10
2024-01-05T16:26:23.243Z,62.79
2024-01-05T16:28:50.468Z,62.91
2024-01-05T16:31:18.006Z,63.12
2024-01-05T16:33:45.426Z,63.12
2024-01-05T16:36:13.826Z,63.29
2024-01-05T16:38:41.036Z,63.16
2024-01-05T16:41:10.116Z,63.93
2024-01-05T16:43:38.083Z,64.04
2024-01-05T16:46:05.273Z,64.12
2024-01-05T16:48:32.714Z,64.17
2024-01-05T16:50:59.915Z,64.73
2024-01-05T16:53:28.855Z,65.13
2024-01-05T16:55:58.967Z,64.66
2024-01-05T16:58:25.735Z,64.89
2024-01-05T17:00:52.611Z,65.08
2024-01-05T17:03:19.935Z,64.39
2024-01-05T17:05:48.443Z,64.26
2024-01-05T17:08:15.865Z,64.14
2024-01-05T17:10:42.678Z,64.56
2024-01-05T17:13:09.542Z,65.09
2024-01-05T17:15:36.305Z,64.91
2024-01-05T17:18:03.341Z,64.88
2024-01-05T17:20:30.449Z,65.72
2024-01-05T17:22:58.457Z,65.87
2024-01-05T17:25:25.181Z,65.30
2024-01-05T17:27:52.028Z,65.27
2024-01-05T17:30:19.046Z,64.83
2024-01-05T17:32:46.765Z,64.72
2024-01-05T17:35:13.906Z,64.55
2024-01-05T17:37:40.782Z,64.38
2024-01-05T17:40:08.887Z,64.39
2024-01-05T17:42:36.316Z,64.41
2024-01-05T17:45:05.023Z,64.42
2024-01-05T17:47:31.930Z,64.56
2024-01-05T17:49:59.283Z,64.56
2024-01-05T17:52:27.079Z,64.53
2024-01-05T17:54:54.506Z,64.28
2024-01-05T17:57:24.821Z,64.17
2024-01-05T17:59:52.492Z,64.22
2024-01-05T18:02:19.316Z,64.32
2024-01-05T18:04:46.609Z,64.40
2024-01-05T18:07:14.249Z,64.48
2024-01-05T18:09:43.279Z,64.69
2024-01-05T18:12:10.776Z,64.55
2024-01-05T18:14:39.121Z,64.56
2024-01-05T18:17:06.224Z,64.99
2024-01-05T18:19:33.290Z,66.18
2024-01-05T18:22:00.500Z,65.65
2024-01-05T18:24:27.583Z,65.76
2024-01-05T18:26:54.390Z,65.42
2024-01-05T18:29:28.591Z,66.29
2024-01-05T18:31:59.763Z,66.20
2024-01-05T18:34:27.266Z,66.36
2024-01-05T18:36:54.896Z,66.28
2024-01-05T18:39:22.454Z,67.32
2024-01-05T18:41:49.559Z,67.32
2024-01-05T18:44:16.604Z,66.70
2024-01-05T18:46:43.714Z,67.54
2024-01-05T18:49:11.376Z,67.26
2024-01-05T18:51:38.671Z,67.21
2024-01-05T18:54:07.303Z,66.75
2024-01-05T18:56:34.850Z,66.70
2024-01-05T18:59:03.277Z,66.65
2024-01-05T19:01:31.128Z,67.34
2024-01-05T19:03:58.526Z,66.90
2024-01-05T19:06:26.007Z,68.45
2024-01-05T19:08:53.058Z,67.76
2024-01-05T19:11:20.228Z,67.37
2024-01-05T19:13:47.340Z,67.85
2024-01-05T19:16:14.441Z,68.15
2024-01-05T19:18:41.673Z,68.15
2024-01-05T19:21:08.625Z,68.35
2024-01-05T19:23:35.670Z,67.40
2024-01-05T19:26:03.043Z,68.36
2024-01-05T19:28:30.087Z,68.67
2024-01-05T19:30:57.444Z,68.34
2024-01-05T19:33:24.637Z,68.13
2024-01-05T19:35:51.598Z,67.98
2024-01-05T19:38:19.174Z,67.52
2024-01-05T19:40:47.899Z,67.33
2024-01-05T19:43:15.588Z,66.87
2024-01-05T19:45:42.641Z,66.85
2024-01-05T19:48:10.204Z,66.79
2024-01-05T19:50:38.572Z,66.93
2024-01-05T19:53:06.195Z,66.21
2024-01-05T19:55:33.553Z,66.27
2024-01-05T19:58:01.175Z,66.26
2024-01-05T20:00:28.983Z,65.78
2024-01-05T20:02:55.905Z,65.72
2024-01-05T20:05:24.577Z,65.17
2024-01-05T20:07:52.144Z,65.30
2024-01-05T20:10:20.128Z,65.27
2024-01-05T20:12:47.632Z,64.73
2024-01-05T20:15:15.002Z,64.66
2024-01-05T20:17:42.115Z,65.44
2024-01-05T20:20:10.395Z,65.09
2024-01-05T20:22:41.505Z,65.00
2024-01-05T20:25:09.699Z,64.73
2024-01-05T20:27:43.487Z,65.01
2024-01-05T20:30:13.494Z,65.02
2024-01-05T20:32:41.012Z,65.10
2024-01-05T20:35:10.750Z,65.54
2024-01-05T20:37:38.732Z,65.55
2024-01-05T20:40:09.627Z,65.84
2024-01-05T20:42:37.791Z,65.85
2024-01-05T20:45:07.399Z,65.91
2024-01-05T20:47:34.540Z,64.98
2024-01-05T20:50:01.778Z,65.78
2024-01-05T20:52:28.961Z,66.55
2024-01-05T20:54:56.076Z,66.40
2024-01-05T20:57:22.958Z,66.35
2024-01-05T20:59:50.177Z,66.50
2024-01-05T21:02:17.028Z,66.18
2024-01-05T21:04:47.147Z,65.72
2024-01-05T21:07:15.479Z,65.45
2024-01-05T21:09:42.645Z,65.41
2024-01-05T21:12:10.454Z,65.02
2024-01-05T21:14:40.805Z,64.53
2024-01-05T21:17:08.308Z,64.58
2024-01-05T21:19:39.891Z,63.54
2024-01-05T21:22:07.185Z,64.38
2024-01-05T21:24:34.140Z,64.50
2024-01-05T21:27:01.611Z,64.45
2024-01-05T21:29:29.280Z,64.49
2024-01-05T21:31:56.562Z,64.07
2024-01-05T21:34:23.451Z,64.77
2024-01-05T21:36:50.615Z,64.80
2024-01-05T21:39:18.163Z,65.09
2024-01-05T21:41:47.328Z,65.56
2024-01-05T21:44:14.684Z,64.89
2024-01-05T21:46:41.524Z,64.58
2024-01-05T21:49:09.738Z,64.86
2024-01-05T21:51:37.456Z,64.83
2024-01-05T21:54:04.715Z,65.01
2024-01-05T21:56:31.571Z,64.88
2024-01-05T21:58:58.785Z,65.10
2024-01-05T22:01:25.950Z,65.36
2024-01-05T22:03:53.002Z,65.28
2024-01-05T22:06:20.352Z,65.12
2024-01-05T22:08:48.935Z,65.36
2024-01-05T22:11:16.231Z,65.50
2024-01-05T22:13:43.295Z,65.23
2024-01-05T22:16:17.072Z,65.60
2024-01-05T22:18:45.704Z,65.84
2024-01-05T22:21:14.323Z,65.60
2024-01-05T22:23:41.860Z,65.43
2024-01-05T22:26:18.724Z,65.29
2024-01-05T22:28:45.564Z,65.12
2024-01-05T22:31:13.897Z,64.98
2024-01-05T22:33:41.875Z,65.16
2024-01-05T22:36:13.040Z,65.00
2024-01-05T22:38:40.722Z,65.12
2024-01-05T22:41:08.255Z,65.23
2024-01-05T22:43:35.560Z,65.45
2024-01-05T22:46:05.890Z,65.56
2024-01-05T22:48:36.118Z,65.51
2024-01-05T22:51:03.829Z,65.37
2024-01-05T22:53:30.856Z,65.00
2024-01-05T22:55:57.678Z,65.33
2024-01-05T22:58:24.766Z,65.44
2024-01-05T23:00:53.622Z,65.54
2024-01-05T23:03:20.900Z,65.91
2024-01-05T23:05:48.742Z,66.20
2024-01-05T23:08:15.802Z,66.51
2024-01-05T23:10:44.176Z,66.55
2024-01-05T23:13:11.197Z,66.59
2024-01-05T23:15:38.835Z,66.58
2024-01-05T23:18:06.308Z,66.83
2024-01-05T23:20:33.429Z,67.06
2024-01-05T23:23:00.453Z,67.28
2024-01-05T23:25:27.884Z,68.49
2024-01-05T23:27:55.858Z,68.25
2024-01-05T23:30:22.986Z,68.41
2024-01-05T23:32:50.266Z,68.11
2024-01-05T23:35:18.274Z,68.47
2024-01-05T23:37:45.309Z,68.28
2024-01-05T23:40:12.986Z,67.93
2024-01-05T23:42:40.081Z,68.55
2024-01-05T23:45:07.582Z,68.26
2024-01-05T23:47:34.769Z,68.91
2024-01-05T23:50:02.149Z,68.19
2024-01-05T23:52:28.997Z,68.73
2024-01-05T23:54:56.549Z,68.50
2024-01-05T23:57:23.345Z,68.78
2024-01-05T23:59:50.454Z,68.63
